Time;durP1;ratioP1;P1;durP2;ratioP2;P2;SDS_P1;SDS_P2;PMS_P1;PMS_P2;Temp;Humidity;BMP_temperature;BMP_pressure;BME280_temperature;BME280_humidity;BME280_pressure;Samples;Min_cycle;Max_cycle;Signal;HPM_P1;HPM_P2
2022/06/22 07:09:32;;;;;;;3.92;2.15;;;;;;;;;;10586275;27;20700;-83
2022/06/22 07:14:40;;;;;;;3.50;2.10;;;;;;;;;;10588768;28;20053;-85
2022/06/22 07:20:04;;;;;;;3.95;1.98;;;;;;;;;;10587380;28;20051;-85
2022/06/22 07:25:19;;;;;;;4.07;1.98;;;;;;;;;;10584364;28;20120;-84
2022/06/22 07:30:29;;;;;;;4.22;1.60;;;;;;;;;;10595853;28;20028;-84
2022/06/22 07:35:42;;;;;;;4.13;2.10;;;;;;;;;;10609373;28;20040;-83
2022/06/22 07:41:29;;;;;;;6.60;2.25;;;;;;;;;;10589388;28;20366;-83
2022/06/22 07:46:07;;;;;;;5.78;2.70;;;;;;;;;;10578776;28;20371;-82
2022/06/22 07:51:22;;;;;;;3.58;2.00;;;;;;;;;;10565686;28;20024;-82
2022/06/22 07:56:42;;;;;;;6.30;2.40;;;;;;;;;;10585381;28;20112;-81
2022/06/22 08:01:44;;;;;;;3.28;1.92;;;;;;;;;;10584469;28;20024;-85
2022/06/22 08:07:02;;;;;;;5.55;1.90;;;;;;;;;;10592919;28;20138;-84
2022/06/22 08:12:05;;;;;;;4.17;3.07;;;;;;;;;;10573458;28;20032;-83
2022/06/22 08:17:32;;;;;;;5.43;2.20;;;;;;;;;;10576885;28;20057;-81
2022/06/22 08:22:34;;;;;;;3.47;1.90;;;;;;;;;;10553258;28;20032;-81
2022/06/22 08:28:14;;;;;;;10.95;4.15;;;;;;;;;;10549349;28;20028;-80
2022/06/22 08:33:15;;;;;;;;;;;;;;;;;;10518538;28;20024;-80
2022/06/22 08:38:37;;;;;;;3.42;1.80;;;;;;;;;;10549893;28;19952;-81
2022/06/22 08:43:57;;;;;;;5.00;2.10;;;;;;;;;;10551651;28;20085;-81
2022/06/22 08:49:05;;;;;;;5.38;1.90;;;;;;;;;;10549999;28;20114;-81
2022/06/22 08:59:44;;;;;;;3.33;1.63;;;;;;;;;;10552702;28;20036;-81
2022/06/22 09:04:58;;;;;;;9.98;2.00;;;;;;;;;;10549218;28;20080;-81
2022/06/22 09:10:09;;;;;;;2.67;1.35;;;;;;;;;;10561433;28;20031;-80
2022/06/22 09:15:20;;;;;;;4.88;3.65;;;;;;;;;;10569371;28;20028;-84
2022/06/22 09:20:33;;;;;;;3.90;1.50;;;;;;;;;;10558085;28;20107;-84
2022/06/22 09:25:47;;;;;;;6.88;3.15;;;;;;;;;;10561020;28;20020;-84
2022/06/22 09:30:48;;;;;;;4.28;1.73;;;;;;;;;;10555093;28;20474;-84
2022/06/22 09:36:08;;;;;;;2.78;1.63;;;;;;;;;;10555502;28;20050;-84
2022/06/22 09:41:21;;;;;;;4.80;1.70;;;;;;;;;;10556324;28;20583;-84
2022/06/22 09:46:37;;;;;;;3.10;1.63;;;;;;;;;;10553755;28;20405;-82
2022/06/22 09:51:57;;;;;;;5.53;2.25;;;;;;;;;;10553570;28;20053;-82
2022/06/22 09:57:22;;;;;;;3.30;1.80;;;;;;;;;;10552874;28;20490;-81
2022/06/22 10:03:01;;;;;;;2.95;1.38;;;;;;;;;;10551653;28;20498;-82
2022/06/22 10:08:08;;;;;;;3.55;1.60;;;;;;;;;;10549261;28;20107;-82
2022/06/22 10:13:22;;;;;;;4.20;1.88;;;;;;;;;;10548653;28;20525;-79
2022/06/22 10:18:33;;;;;;;3.90;1.50;;;;;;;;;;10548938;28;20031;-85
2022/06/22 10:23:56;;;;;;;4.47;1.92;;;;;;;;;;10559079;28;20028;-82
2022/06/22 10:29:00;;;;;;;2.08;1.40;;;;;;;;;;10553878;28;20027;-82
2022/06/22 10:34:24;;;;;;;4.00;1.80;;;;;;;;;;10551730;28;20016;-82
2022/06/22 10:39:37;;;;;;;3.83;1.70;;;;;;;;;;10549953;28;20024;-85
2022/06/22 10:45:10;;;;;;;4.97;1.98;;;;;;;;;;10552538;28;20034;-85
2022/06/22 10:56:09;;;;;;;8.27;2.37;;;;;;;;;;10558488;28;20032;-85
2022/06/22 11:01:10;;;;;;;5.22;1.80;;;;;;;;;;10557431;28;20032;-85
2022/06/22 11:06:15;;;;;;;6.32;3.40;;;;;;;;;;10558415;28;20052;-84
2022/06/22 11:11:37;;;;;;;5.07;2.65;;;;;;;;;;10563672;28;20021;-83
2022/06/22 11:16:45;;;;;;;4.28;2.80;;;;;;;;;;10557798;28;20411;-83
2022/06/22 11:21:50;;;;;;;5.18;2.40;;;;;;;;;;10556603;28;20089;-83
2022/06/22 11:32:29;;;;;;;4.90;1.42;;;;;;;;;;10559142;28;20020;-84
2022/06/22 11:37:49;;;;;;;4.45;1.33;;;;;;;;;;10555293;28;20493;-84
2022/06/22 11:42:50;;;;;;;3.70;1.42;;;;;;;;;;10550396;28;20490;-84
2022/06/22 11:48:13;;;;;;;2.97;1.52;;;;;;;;;;10552506;28;20458;-84
2022/06/22 11:53:33;;;;;;;3.47;1.80;;;;;;;;;;10553647;28;20027;-83
2022/06/22 11:58:34;;;;;;;;;;;;;;;;;;10561269;28;20026;-84
2022/06/22 12:03:45;;;;;;;2.20;1.65;;;;;;;;;;10558250;28;19911;-85
2022/06/22 12:08:46;;;;;;;4.50;2.22;;;;;;;;;;10557848;28;20131;-84
2022/06/22 12:19:17;;;;;;;3.67;1.30;;;;;;;;;;10553406;28;20028;-83
2022/06/22 12:24:25;;;;;;;5.70;1.73;;;;;;;;;;10553147;28;20055;-82
2022/06/22 12:29:36;;;;;;;5.05;1.60;;;;;;;;;;10558152;28;20087;-83
2022/06/22 12:34:41;;;;;;;5.80;1.70;;;;;;;;;;10563636;28;20031;-81
2022/06/22 12:40:08;;;;;;;5.63;1.38;;;;;;;;;;10555749;28;20059;-85
2022/06/22 12:45:33;;;;;;;3.20;2.53;;;;;;;;;;10370241;28;20049;-84
2022/06/22 12:50:53;;;;;;;8.25;1.70;;;;;;;;;;10532054;28;20032;-85
2022/06/22 12:55:54;;;;;;;;;;;;;;;;;;10559151;28;20031;-85
2022/06/22 13:00:57;;;;;;;2.20;1.30;;;;;;;;;;10564937;28;19910;-85
2022/06/22 13:06:03;;;;;;;3.35;1.23;;;;;;;;;;10558232;28;20110;-85
2022/06/22 13:11:13;;;;;;;5.70;2.50;;;;;;;;;;10570891;28;20020;-84
2022/06/22 13:16:17;;;;;;;5.57;1.58;;;;;;;;;;10553411;28;20127;-84
2022/06/22 13:21:18;;;;;;;2.50;1.50;;;;;;;;;;10559410;28;20547;-83
2022/06/22 13:26:39;;;;;;;3.67;1.42;;;;;;;;;;10556774;28;20077;-84
2022/06/22 13:31:44;;;;;;;12.55;10.02;;;;;;;;;;10557697;28;20464;-84
2022/06/22 13:37:03;;;;;;;4.80;2.30;;;;;;;;;;10554552;28;20038;-84
2022/06/22 13:42:17;;;;;;;6.03;1.70;;;;;;;;;;10554020;28;20478;-84
2022/06/22 13:47:21;;;;;;;2.92;1.55;;;;;;;;;;10553832;28;20028;-84
2022/06/22 13:52:30;;;;;;;2.13;1.40;;;;;;;;;;10549370;28;20020;-82
2022/06/22 13:58:04;;;;;;;4.25;1.63;;;;;;;;;;10553983;28;20028;-82
2022/06/22 14:14:31;;;;;;;2.83;1.90;;;;;;;;;;10592480;22;20385;-81
2022/06/22 14:19:41;;;;;;;4.47;1.70;;;;;;;;;;10490687;28;20035;-81
2022/06/22 14:24:44;;;;;;;2.97;1.45;;;;;;;;;;10512264;28;20266;-80
2022/06/22 14:29:48;;;;;;;3.28;1.77;;;;;;;;;;10550799;28;20095;-80
2022/06/22 14:35:08;;;;;;;4.05;1.40;;;;;;;;;;10530885;28;20024;-80
2022/06/22 14:40:16;;;;;;;3.30;1.40;;;;;;;;;;10532514;28;20027;-81
2022/06/22 14:45:55;;;;;;;3.55;1.55;;;;;;;;;;10533079;28;20020;-80
2022/06/22 14:50:56;;;;;;;;;;;;;;;;;;10381558;28;20029;-81
2022/06/22 14:56:04;;;;;;;5.60;3.00;;;;;;;;;;10510697;28;20357;-81
2022/06/22 15:01:05;;;;;;;2.25;1.40;;;;;;;;;;10531481;28;20189;-80
2022/06/22 15:06:22;;;;;;;2.83;1.60;;;;;;;;;;10529947;28;20539;-81
2022/06/22 15:16:52;;;;;;;3.78;1.42;;;;;;;;;;10542520;28;20043;-80
2022/06/22 15:21:57;;;;;;;3.72;1.50;;;;;;;;;;10543045;28;20032;-79
2022/06/22 15:27:17;;;;;;;3.13;1.60;;;;;;;;;;10531667;28;20100;-80
2022/06/22 15:32:20;;;;;;;3.05;1.35;;;;;;;;;;10539867;28;20016;-81
2022/06/22 15:37:34;;;;;;;3.35;1.35;;;;;;;;;;10559208;28;20035;-80
2022/06/22 15:43:07;;;;;;;3.58;1.40;;;;;;;;;;10559582;28;20020;-81
2022/06/22 15:48:13;;;;;;;4.78;1.58;;;;;;;;;;10494988;28;20036;-81
2022/06/22 15:53:14;;;;;;;22.38;9.52;;;;;;;;;;10538301;28;20050;-80
2022/06/22 15:58:27;;;;;;;5.82;1.90;;;;;;;;;;10548112;28;20020;-80
2022/06/22 16:03:49;;;;;;;6.13;1.83;;;;;;;;;;10540439;28;20028;-79
2022/06/22 16:09:04;;;;;;;4.68;1.50;;;;;;;;;;10553558;28;20087;-80
2022/06/22 16:14:18;;;;;;;2.63;1.30;;;;;;;;;;10534175;28;20036;-79
2022/06/22 16:19:40;;;;;;;7.75;2.60;;;;;;;;;;10534689;28;20073;-82
2022/06/22 16:24:46;;;;;;;3.72;1.50;;;;;;;;;;10537373;28;20115;-81
2022/06/22 16:41:46;;;;;;;3.65;1.33;;;;;;;;;;10554137;28;20456;-84
2022/06/22 16:52:56;;;;;;;5.05;1.50;;;;;;;;;;10466990;28;20055;-85
2022/06/22 17:04:20;;;;;;;16.05;2.58;;;;;;;;;;10520814;28;20028;-85
2022/06/22 17:09:40;;;;;;;8.45;1.75;;;;;;;;;;10478723;28;20043;-84
2022/06/22 17:20:48;;;;;;;12.73;1.88;;;;;;;;;;10560587;28;20075;-85
2022/06/22 17:26:13;;;;;;;5.43;1.40;;;;;;;;;;10540718;28;20032;-85
2022/06/22 17:48:27;;;;;;;6.63;1.42;;;;;;;;;;3048682;26;20092;-85
2022/06/22 17:53:42;;;;;;;23.20;2.70;;;;;;;;;;10623969;27;20024;-85
2022/06/22 17:59:08;;;;;;;2.45;1.30;;;;;;;;;;10617955;27;20093;-86
2022/06/22 18:04:34;;;;;;;4.10;1.20;;;;;;;;;;10542931;28;20028;-86
2022/06/22 18:09:55;;;;;;;5.55;1.27;;;;;;;;;;10572778;28;20035;-86
2022/06/22 18:15:13;;;;;;;4.38;1.52;;;;;;;;;;10585622;28;20057;-85
2022/06/22 18:32:07;;;;;;;10.10;1.98;;;;;;;;;;10534560;28;20029;-86
2022/06/22 18:37:37;;;;;;;10.85;1.85;;;;;;;;;;10517372;28;20044;-86
2022/06/22 18:42:44;;;;;;;18.75;2.92;;;;;;;;;;10562099;28;20047;-86
2022/06/22 18:54:15;;;;;;;7.32;2.00;;;;;;;;;;10600533;28;20032;-87
2022/06/22 19:05:37;;;;;;;5.03;1.88;;;;;;;;;;10493761;28;20036;-86
2022/06/22 19:10:40;;;;;;;4.50;1.80;;;;;;;;;;10489992;28;20518;-86
2022/06/22 19:15:47;;;;;;;7.80;2.45;;;;;;;;;;10573450;28;20035;-86
2022/06/22 19:21:18;;;;;;;27.52;3.15;;;;;;;;;;10566370;28;20047;-86
